Time;durP1;ratioP1;P1;durP2;ratioP2;P2;SDS_P1;SDS_P2;PMS_P1;PMS_P2;Temp;Humidity;BMP_temperature;BMP_pressure;BME280_temperature;BME280_humidity;BME280_pressure;Samples;Min_cycle;Max_cycle;Signal;HPM_P1;HPM_P2
2022/12/16 00:01:10;;;;;;;4.57;2.95;;;4.20;99.90;;;;;;5069361;28;20514;-72
2022/12/16 00:03:37;;;;;;;2.35;2.05;;;4.20;99.90;;;;;;5069866;28;20025;-71
2022/12/16 00:06:03;;;;;;;3.17;2.08;;;4.20;99.90;;;;;;5069417;28;20379;-72
2022/12/16 00:08:32;;;;;;;4.15;2.42;;;4.00;99.90;;;;;;5069425;28;20491;-72
2022/12/16 00:10:59;;;;;;;4.80;2.97;;;4.10;99.90;;;;;;5069206;28;20017;-72
2022/12/16 00:13:26;;;;;;;3.90;2.55;;;;;;;;;;5055967;28;20437;-72
2022/12/16 00:15:52;;;;;;;7.07;3.05;;;4.20;99.90;;;;;;5067127;28;20787;-72
2022/12/16 00:18:18;;;;;;;6.97;2.63;;;4.50;99.90;;;;;;5069690;28;20024;-72
2022/12/16 00:20:50;;;;;;;4.22;2.40;;;4.10;99.90;;;;;;5064350;28;20029;-72
2022/12/16 00:23:16;;;;;;;3.60;2.92;;;4.70;99.90;;;;;;5050071;28;20022;-72
2022/12/16 00:25:43;;;;;;;7.25;3.72;;;4.10;99.90;;;;;;5049785;28;20044;-72
2022/12/16 00:28:09;;;;;;;5.43;3.83;;;4.20;99.90;;;;;;5049837;28;20509;-71
2022/12/16 00:30:35;;;;;;;5.07;2.45;;;4.00;99.90;;;;;;5041101;28;20090;-72
2022/12/16 00:33:01;;;;;;;4.47;2.72;;;4.10;99.90;;;;;;5049957;28;20016;-72
2022/12/16 00:35:27;;;;;;;6.15;3.13;;;;;;;;;;5049553;28;20493;-72
2022/12/16 00:37:53;;;;;;;3.67;2.75;;;4.10;99.90;;;;;;5049687;28;20104;-72
2022/12/16 00:40:19;;;;;;;4.13;2.75;;;;;;;;;;5049760;28;20128;-72
2022/12/16 00:42:45;;;;;;;7.18;3.88;;;;;;;;;;5049299;28;20049;-73
2022/12/16 00:45:11;;;;;;;7.13;3.03;;;;;;;;;;5049111;28;20482;-72
2022/12/16 00:47:37;;;;;;;8.63;3.13;;;;;;;;;;5049919;28;20029;-72
2022/12/16 00:50:03;;;;;;;4.47;2.97;;;4.10;99.90;;;;;;5049705;28;20655;-72
2022/12/16 00:52:29;;;;;;;6.78;3.60;;;4.30;99.90;;;;;;5049500;28;20066;-72
2022/12/16 00:54:55;;;;;;;7.25;3.47;;;;;;;;;;5067001;28;20444;-72
2022/12/16 00:57:21;;;;;;;5.82;3.17;;;4.20;99.90;;;;;;5059450;28;20116;-72
2022/12/16 00:59:47;;;;;;;5.22;2.85;;;4.10;99.90;;;;;;5068778;28;20036;-72
2022/12/16 01:02:13;;;;;;;2.38;1.85;;;;;;;;;;5067381;28;20394;-73
2022/12/16 01:04:39;;;;;;;5.38;2.72;;;4.10;99.90;;;;;;5067778;28;20154;-72
2022/12/16 01:07:05;;;;;;;7.32;3.00;;;;;;;;;;5052296;28;20036;-72
2022/12/16 01:09:31;;;;;;;6.38;2.42;;;;;;;;;;5050141;28;20078;-72
2022/12/16 01:11:57;;;;;;;4.82;2.28;;;;;;;;;;5053723;28;20025;-72
2022/12/16 01:14:22;;;;;;;3.17;1.85;;;3.80;99.90;;;;;;5059596;28;20078;-72
2022/12/16 01:16:48;;;;;;;3.65;2.55;;;;;;;;;;5060312;28;20021;-72
2022/12/16 01:19:14;;;;;;;3.60;3.00;;;;;;;;;;5051101;28;20441;-72
2022/12/16 01:21:40;;;;;;;3.85;2.22;;;;;;;;;;5068460;28;20083;-73
2022/12/16 01:24:06;;;;;;;4.70;3.13;;;;;;;;;;5066778;28;21495;-72
2022/12/16 01:26:32;;;;;;;7.05;3.00;;;;;;;;;;5049882;28;20529;-73
2022/12/16 01:28:58;;;;;;;5.50;3.22;;;;;;;;;;5048648;28;20025;-73
2022/12/16 01:31:24;;;;;;;4.82;2.38;;;3.80;99.90;;;;;;5049087;28;20043;-72
2022/12/16 01:33:50;;;;;;;4.18;2.85;;;;;;;;;;5049096;28;20562;-72
2022/12/16 01:36:16;;;;;;;7.15;3.42;;;;;;;;;;5049424;28;20408;-72
2022/12/16 01:38:43;;;;;;;4.75;2.85;;;3.70;99.90;;;;;;5048910;28;20028;-72
2022/12/16 01:41:10;;;;;;;15.30;2.60;;;3.80;99.90;;;;;;5049531;28;20025;-72
2022/12/16 01:43:38;;;;;;;3.23;2.50;;;3.70;99.90;;;;;;5054567;28;20052;-72
2022/12/16 01:46:12;;;;;;;8.27;3.30;;;3.70;99.90;;;;;;5055601;28;20294;-72
2022/12/16 01:48:38;;;;;;;5.35;3.10;;;;;;;;;;5036649;28;20025;-72
2022/12/16 01:51:28;;;;;;;6.80;2.53;;;3.60;99.90;;;;;;5049323;28;20100;-72
2022/12/16 01:54:11;;;;;;;8.23;3.85;;;3.50;99.90;;;;;;5049268;28;20033;-72
2022/12/16 01:56:43;;;;;;;6.80;2.92;;;3.50;99.90;;;;;;5049291;28;20120;-72
2022/12/16 01:59:12;;;;;;;7.07;3.60;;;3.30;99.90;;;;;;5048637;28;20021;-72
2022/12/16 02:01:38;;;;;;;4.97;2.92;;;;;;;;;;5048869;28;20052;-72
2022/12/16 02:04:04;;;;;;;6.70;2.97;;;;;;;;;;5048279;28;20033;-72
2022/12/16 02:06:31;;;;;;;8.32;4.30;;;3.30;99.90;;;;;;5048958;28;20041;-72
2022/12/16 02:09:01;;;;;;;8.90;3.50;;;3.30;99.90;;;;;;5050092;28;20029;-72
2022/12/16 02:11:44;;;;;;;9.20;4.03;;;3.20;99.90;;;;;;5048797;28;20033;-72
2022/12/16 02:14:55;;;;;;;7.53;4.20;;;3.20;99.90;;;;;;5049497;28;20482;-72
2022/12/16 02:17:43;;;;;;;8.50;5.65;;;3.20;99.90;;;;;;4980196;28;20038;-72
2022/12/16 02:20:45;;;;;;;7.63;4.15;;;3.10;99.90;;;;;;4911630;29;20572;-72
2022/12/16 02:23:47;;;;;;;10.57;4.32;;;2.90;99.90;;;;;;4910791;29;20111;-72
2022/12/16 02:26:45;;;;;;;8.82;4.72;;;2.80;99.90;;;;;;4906937;29;20044;-72
2022/12/16 02:29:38;;;;;;;8.88;5.32;;;2.60;99.90;;;;;;4926747;29;20131;-72
2022/12/16 02:32:22;;;;;;;9.63;4.93;;;2.80;99.90;;;;;;4925121;29;20048;-72
2022/12/16 02:35:07;;;;;;;15.05;4.72;;;2.90;99.90;;;;;;4926851;29;20031;-72
2022/12/16 02:37:58;;;;;;;8.10;4.72;;;2.90;99.90;;;;;;4907334;29;20123;-72
2022/12/16 02:40:36;;;;;;;12.43;4.75;;;1.40;99.90;;;;;;4922537;29;20569;-72
2022/12/16 02:43:29;;;;;;;6.43;4.22;;;2.80;99.90;;;;;;4920222;29;20058;-72
2022/12/16 02:45:55;;;;;;;13.18;4.82;;;;;;;;;;4910483;29;20476;-72
2022/12/16 02:48:21;;;;;;;18.27;5.75;;;;;;;;;;4921595;29;20201;-72
2022/12/16 02:50:51;;;;;;;12.50;4.60;;;2.80;99.90;;;;;;4918232;29;20046;-72
2022/12/16 02:53:20;;;;;;;13.27;6.70;;;2.60;99.90;;;;;;4948038;28;20083;-72
2022/12/16 02:56:00;;;;;;;12.10;5.38;;;2.90;99.90;;;;;;5023499;28;20029;-72
2022/12/16 02:58:43;;;;;;;15.73;5.55;;;2.80;99.90;;;;;;5064980;28;20037;-72
2022/12/16 03:01:39;;;;;;;13.50;5.82;;;2.80;99.90;;;;;;5065700;28;20100;-72
2022/12/16 03:04:25;;;;;;;14.40;5.47;;;2.80;99.90;;;;;;5066253;28;20610;-72
2022/12/16 03:06:53;;;;;;;20.77;6.05;;;2.80;99.90;;;;;;5067065;28;20044;-71
2022/12/16 03:09:25;;;;;;;9.52;5.35;;;2.90;99.90;;;;;;5065434;28;20016;-72
2022/12/16 03:11:53;;;;;;;13.57;6.03;;;2.80;99.90;;;;;;5066658;28;20433;-72
2022/12/16 03:14:22;;;;;;;12.48;7.03;;;2.90;99.90;;;;;;5063792;28;20653;-72
2022/12/16 03:16:49;;;;;;;26.70;7.32;;;2.80;99.90;;;;;;5056037;28;20021;-72
2022/12/16 03:19:15;;;;;;;12.57;6.93;;;;;;;;;;5064796;28;20047;-72
2022/12/16 03:22:36;;;;;;;19.63;6.75;;;2.80;99.90;;;;;;5066850;28;20096;-72
2022/12/16 03:25:02;;;;;;;16.33;6.70;;;;;;;;;;5049187;28;20040;-72
2022/12/16 03:27:42;;;;;;;17.35;5.82;;;2.50;99.90;;;;;;5063968;28;20486;-72
2022/12/16 03:30:18;;;;;;;20.02;6.88;;;2.80;99.90;;;;;;5052244;28;20053;-72
2022/12/16 03:32:53;;;;;;;13.10;6.03;;;2.80;99.90;;;;;;5070671;28;20504;-72
2022/12/16 03:35:32;;;;;;;17.35;6.40;;;2.70;99.90;;;;;;5070515;28;20153;-72
2022/12/16 03:38:01;;;;;;;14.57;5.85;;;2.60;99.90;;;;;;5070129;28;20497;-72
2022/12/16 03:40:28;;;;;;;24.90;9.15;;;2.70;99.90;;;;;;5050548;28;20140;-72
2022/12/16 03:42:55;;;;;;;30.88;8.48;;;2.70;99.90;;;;;;5051123;28;20053;-72
2022/12/16 03:45:23;;;;;;;;;;;2.80;99.90;;;;;;5038896;28;20029;-73
2022/12/16 03:47:50;;;;;;;12.10;5.72;;;;;;;;;;5052096;28;19912;-71
2022/12/16 03:50:18;;;;;;;17.75;7.20;;;2.60;99.90;;;;;;5051354;28;20037;-72
2022/12/16 03:52:44;;;;;;;11.85;6.47;;;;;;;;;;5050841;28;20040;-72
2022/12/16 03:55:10;;;;;;;21.38;8.30;;;;;;;;;;5050885;28;20027;-72
2022/12/16 03:57:36;;;;;;;16.58;5.93;;;;;;;;;;5051474;28;20029;-72
2022/12/16 04:00:03;;;;;;;22.85;7.25;;;2.40;99.90;;;;;;5050977;28;20021;-72
2022/12/16 04:02:29;;;;;;;17.90;6.88;;;2.40;99.90;;;;;;5051572;28;20033;-73
2022/12/16 04:04:54;;;;;;;25.48;6.90;;;2.40;99.90;;;;;;5050354;28;20040;-72
2022/12/16 04:07:20;;;;;;;23.20;6.82;;;2.60;99.90;;;;;;5050767;28;20041;-72
2022/12/16 04:09:47;;;;;;;26.42;8.70;;;2.60;99.90;;;;;;5050500;28;20050;-72
2022/12/16 04:26:11;;;;;;;19.02;6.43;;;;;;;;;;5046258;28;20044;-72
2022/12/16 04:28:37;;;;;;;14.38;5.78;;;;;;;;;;5054343;28;20064;-73
2022/12/16 04:31:03;;;;;;;19.17;8.07;;;;;;;;;;5049771;28;20082;-72
